Burleson, Texas
Current Conditions -  °F | °C
As of 9:15 PM on Saturday 20 Dec 2014 (Local Time) from KFWS Reporting Station
Haze Haze  
Wind Chill: 47°   Ceiling: 2800
Heat Index: 47°   Visibility: 4mi
Dew Point: 44°   Wind: 0mph
Humidity: 90%   Direction: NA
Pressure: 30.2"   Gusts: NA
Location:  32.56°N, 97.32°W
Report Text: KFWS 210315Z AUTO 00000KT 4SM BR SCT012 OVC028 08/07 A3020 RMK AO2 T00830067
Loading
Personal Weather Stations






























Interactive Weather Map New forecast layout! Learn more

10-Day Weather Forecast

Advertisements
Track Severe Weather on mobile